sensor_id;sensor_type;location;lat;lon;timestamp;pressure;altitude;pressure_sealevel;temperature;humidity
68489;BME280;55481;48.764;8.936;2023-07-20T00:02:09;96920;;;18.7;52.5
68489;BME280;55481;48.764;8.936;2023-07-20T00:04:40;96920;;;18.7;52.5
68489;BME280;55481;48.764;8.936;2023-07-20T00:07:18;96930;;;18.7;52.5
68489;BME280;55481;48.764;8.936;2023-07-20T00:09:54;96930;;;18.7;52.5
68489;BME280;55481;48.764;8.936;2023-07-20T00:14:42;96920;;;18.6;52.5
68489;BME280;55481;48.764;8.936;2023-07-20T00:19:44;96920;;;18.6;52.5
68489;BME280;55481;48.764;8.936;2023-07-20T00:22:14;96930;;;18.6;52.5
68489;BME280;55481;48.764;8.936;2023-07-20T00:24:45;96930;;;18.6;52.5
68489;BME280;55481;48.764;8.936;2023-07-20T00:27:16;96930;;;18.6;52.5
68489;BME280;55481;48.764;8.936;2023-07-20T00:29:47;96930;;;18.5;52.5
68489;BME280;55481;48.764;8.936;2023-07-20T00:32:25;96930;;;18.5;52.5
68489;BME280;55481;48.764;8.936;2023-07-20T00:37:20;96930;;;18.5;52.5
68489;BME280;55481;48.764;8.936;2023-07-20T00:42:28;96930;;;18.4;52.5
68489;BME280;55481;48.764;8.936;2023-07-20T00:44:58;96930;;;18.4;52.5
68489;BME280;55481;48.764;8.936;2023-07-20T00:49:53;96920;;;18.4;52.5
68489;BME280;55481;48.764;8.936;2023-07-20T00:52:23;96930;;;18.3;52.5
68489;BME280;55481;48.764;8.936;2023-07-20T00:54:54;96930;;;18.1;53
68489;BME280;55481;48.764;8.936;2023-07-20T00:57:32;96920;;;18;53
68489;BME280;55481;48.764;8.936;2023-07-20T01:02:40;96930;;;17.8;53
68489;BME280;55481;48.764;8.936;2023-07-20T01:05:05;96930;;;17.8;53
68489;BME280;55481;48.764;8.936;2023-07-20T01:14:59;96930;;;17.7;53
68489;BME280;55481;48.764;8.936;2023-07-20T01:17:30;96930;;;17.6;53
68489;BME280;55481;48.764;8.936;2023-07-20T01:20:08;96930;;;17.6;53
68489;BME280;55481;48.764;8.936;2023-07-20T01:22:42;96930;;;17.6;53
68489;BME280;55481;48.764;8.936;2023-07-20T01:28:09;96930;;;17.6;53
68489;BME280;55481;48.764;8.936;2023-07-20T01:30:16;96920;;;17.6;53
68489;BME280;55481;48.764;8.936;2023-07-20T01:32:35;96930;;;17.5;53
68489;BME280;55481;48.764;8.936;2023-07-20T01:40:26;96930;;;17.4;53
68489;BME280;55481;48.764;8.936;2023-07-20T01:42:45;96920;;;17.4;53
68489;BME280;55481;48.764;8.936;2023-07-20T01:45:13;96920;;;17.3;53.5
68489;BME280;55481;48.764;8.936;2023-07-20T01:47:38;96920;;;17.3;53.5
68489;BME280;55481;48.764;8.936;2023-07-20T01:50:09;96920;;;17.1;53.5
68489;BME280;55481;48.764;8.936;2023-07-20T01:55:04;96920;;;17;54
68489;BME280;55481;48.764;8.936;2023-07-20T02:02:36;96920;;;16.9;54
68489;BME280;55481;48.764;8.936;2023-07-20T02:05:07;96920;;;16.8;54
68489;BME280;55481;48.764;8.936;2023-07-20T02:07:38;96930;;;16.8;54
68489;BME280;55481;48.764;8.936;2023-07-20T02:10:09;96930;;;16.7;54
68489;BME280;55481;48.764;8.936;2023-07-20T02:12:46;96920;;;16.7;54
68489;BME280;55481;48.764;8.936;2023-07-20T02:15:17;96930;;;16.7;54
68489;BME280;55481;48.764;8.936;2023-07-20T02:17:48;96930;;;16.7;54
68489;BME280;55481;48.764;8.936;2023-07-20T02:20:11;96920;;;16.6;54
68489;BME280;55481;48.764;8.936;2023-07-20T02:22:43;96920;;;16.6;54
68489;BME280;55481;48.764;8.936;2023-07-20T02:30:15;96930;;;16.5;54.5
68489;BME280;55481;48.764;8.936;2023-07-20T02:32:46;96920;;;16.5;54
68489;BME280;55481;48.764;8.936;2023-07-20T02:37:54;96930;;;16.3;54.5
68489;BME280;55481;48.764;8.936;2023-07-20T02:40:24;96930;;;16.2;54.5
68489;BME280;55481;48.764;8.936;2023-07-20T02:42:55;96930;;;16.1;55
68489;BME280;55481;48.764;8.936;2023-07-20T02:45:34;96940;;;16.1;55
68489;BME280;55481;48.764;8.936;2023-07-20T02:47:57;96940;;;16.2;54.5
68489;BME280;55481;48.764;8.936;2023-07-20T02:50:28;96950;;;16.1;55
68489;BME280;55481;48.764;8.936;2023-07-20T02:52:59;96950;;;16;55
68489;BME280;55481;48.764;8.936;2023-07-20T02:57:54;96950;;;15.8;55.5
68489;BME280;55481;48.764;8.936;2023-07-20T03:00:25;96950;;;15.6;55.5
68489;BME280;55481;48.764;8.936;2023-07-20T03:02:56;96940;;;15.4;56
68489;BME280;55481;48.764;8.936;2023-07-20T03:05:27;96940;;;15.3;56
68489;BME280;55481;48.764;8.936;2023-07-20T03:07:57;96950;;;15.3;56
68489;BME280;55481;48.764;8.936;2023-07-20T03:10:28;96940;;;15.3;56
68489;BME280;55481;48.764;8.936;2023-07-20T03:13:00;96950;;;15.3;56
68489;BME280;55481;48.764;8.936;2023-07-20T03:15:29;96950;;;15.3;56
68489;BME280;55481;48.764;8.936;2023-07-20T03:18:07;96950;;;15.3;55.5
68489;BME280;55481;48.764;8.936;2023-07-20T03:20:38;96950;;;15.4;55.5
68489;BME280;55481;48.764;8.936;2023-07-20T03:23:09;96950;;;15.4;55.5
68489;BME280;55481;48.764;8.936;2023-07-20T03:25:46;96950;;;15.4;55.5
68489;BME280;55481;48.764;8.936;2023-07-20T03:31:02;96950;;;15.3;55.5
68489;BME280;55481;48.764;8.936;2023-07-20T03:35:49;96950;;;15.3;55.5
68489;BME280;55481;48.764;8.936;2023-07-20T03:38:19;96960;;;15.1;56
68489;BME280;55481;48.764;8.936;2023-07-20T03:43:13;96960;;;15.1;56
68489;BME280;55481;48.764;8.936;2023-07-20T03:45:43;96960;;;15.1;56
68489;BME280;55481;48.764;8.936;2023-07-20T03:48:15;96960;;;15.1;56
68489;BME280;55481;48.764;8.936;2023-07-20T03:50:53;96950;;;15.2;55.5
68489;BME280;55481;48.764;8.936;2023-07-20T03:53:23;96950;;;15.3;55.5
68489;BME280;55481;48.764;8.936;2023-07-20T03:58:12;96950;;;15.2;55.5
68489;BME280;55481;48.764;8.936;2023-07-20T04:00:45;96960;;;15.2;56
68489;BME280;55481;48.764;8.936;2023-07-20T04:03:14;96960;;;15.3;55.5
68489;BME280;55481;48.764;8.936;2023-07-20T04:05:44;96960;;;15.4;55.5
68489;BME280;55481;48.764;8.936;2023-07-20T04:08:15;96960;;;15.5;55
68489;BME280;55481;48.764;8.936;2023-07-20T04:10:45;96970;;;15.7;55
68489;BME280;55481;48.764;8.936;2023-07-20T04:13:17;96970;;;15.7;55
68489;BME280;55481;48.764;8.936;2023-07-20T04:23:45;96970;;;15.7;55
68489;BME280;55481;48.764;8.936;2023-07-20T04:28:33;96970;;;16.1;54.5
68489;BME280;55481;48.764;8.936;2023-07-20T04:31:12;96970;;;16.1;54.5
68489;BME280;55481;48.764;8.936;2023-07-20T04:33:35;96970;;;16.2;54.5
68489;BME280;55481;48.764;8.936;2023-07-20T04:35:58;96970;;;16.3;54.5
68489;BME280;55481;48.764;8.936;2023-07-20T04:38:30;96970;;;16.4;54.5
68489;BME280;55481;48.764;8.936;2023-07-20T04:43:40;96970;;;16.5;54.5
68489;BME280;55481;48.764;8.936;2023-07-20T04:46:14;96970;;;16.8;54
68489;BME280;55481;48.764;8.936;2023-07-20T04:48:51;96970;;;16.9;54
68489;BME280;55481;48.764;8.936;2023-07-20T04:53:32;96970;;;17;53.5
68489;BME280;55481;48.764;8.936;2023-07-20T04:56:03;96970;;;17;54
68489;BME280;55481;48.764;8.936;2023-07-20T05:00:58;96970;;;17.1;54
68489;BME280;55481;48.764;8.936;2023-07-20T05:13:33;96970;;;17.5;53.5
68489;BME280;55481;48.764;8.936;2023-07-20T05:16:03;96970;;;17.2;54
68489;BME280;55481;48.764;8.936;2023-07-20T05:18:34;96970;;;17.3;54
68489;BME280;55481;48.764;8.936;2023-07-20T05:21:05;96970;;;17.5;53.5
68489;BME280;55481;48.764;8.936;2023-07-20T05:23:35;96970;;;17.6;53.5
68489;BME280;55481;48.764;8.936;2023-07-20T05:26:12;96970;;;17.7;53.5
68489;BME280;55481;48.764;8.936;2023-07-20T05:28:44;96970;;;17.6;53.5
68489;BME280;55481;48.764;8.936;2023-07-20T05:31:15;96960;;;17.6;53.5
68489;BME280;55481;48.764;8.936;2023-07-20T05:36:10;96960;;;17.9;53
68489;BME280;55481;48.764;8.936;2023-07-20T05:38:43;96950;;;17.9;53.5
68489;BME280;55481;48.764;8.936;2023-07-20T05:46:13;96950;;;18;53.5
68489;BME280;55481;48.764;8.936;2023-07-20T05:48:43;96950;;;18;53.5
68489;BME280;55481;48.764;8.936;2023-07-20T05:51:14;96960;;;18;53.5
68489;BME280;55481;48.764;8.936;2023-07-20T05:53:51;96950;;;18;53.5
68489;BME280;55481;48.764;8.936;2023-07-20T05:56:22;96960;;;18.1;53.5
68489;BME280;55481;48.764;8.936;2023-07-20T05:58:53;96960;;;18.4;53
68489;BME280;55481;48.764;8.936;2023-07-20T06:01:25;96960;;;18.4;53
68489;BME280;55481;48.764;8.936;2023-07-20T06:03:57;96960;;;18.4;53
68489;BME280;55481;48.764;8.936;2023-07-20T06:06:26;96960;;;18.3;53.5
68489;BME280;55481;48.764;8.936;2023-07-20T06:08:57;96960;;;18.4;53
68489;BME280;55481;48.764;8.936;2023-07-20T06:11:28;96970;;;18.2;53.5
68489;BME280;55481;48.764;8.936;2023-07-20T06:21:32;96970;;;18.8;53
68489;BME280;55481;48.764;8.936;2023-07-20T06:26:34;96970;;;18.9;52.5
68489;BME280;55481;48.764;8.936;2023-07-20T06:29:26;96970;;;18.8;53
68489;BME280;55481;48.764;8.936;2023-07-20T06:31:56;96960;;;18.9;53
68489;BME280;55481;48.764;8.936;2023-07-20T06:42:06;96960;;;19;52.5
68489;BME280;55481;48.764;8.936;2023-07-20T06:44:37;96960;;;19.1;52.5
68489;BME280;55481;48.764;8.936;2023-07-20T06:47:02;96960;;;19.3;52
68489;BME280;55481;48.764;8.936;2023-07-20T06:49:30;96960;;;19.6;52
68489;BME280;55481;48.764;8.936;2023-07-20T06:51:59;96950;;;19.7;52
68489;BME280;55481;48.764;8.936;2023-07-20T06:54:30;96960;;;19.5;52.5
68489;BME280;55481;48.764;8.936;2023-07-20T06:57:01;96960;;;19.6;52
68489;BME280;55481;48.764;8.936;2023-07-20T06:59:19;96950;;;19.7;52
68489;BME280;55481;48.764;8.936;2023-07-20T07:01:59;96950;;;20;51.5
68489;BME280;55481;48.764;8.936;2023-07-20T07:04:29;96950;;;20.1;51.5
68489;BME280;55481;48.764;8.936;2023-07-20T07:09:09;96950;;;20.3;51.5
68489;BME280;55481;48.764;8.936;2023-07-20T07:11:40;96950;;;20.5;51
68489;BME280;55481;48.764;8.936;2023-07-20T07:14:12;96950;;;20.5;51
68489;BME280;55481;48.764;8.936;2023-07-20T07:16:41;96940;;;20.7;51
68489;BME280;55481;48.764;8.936;2023-07-20T07:19:12;96940;;;20.9;50.5
68489;BME280;55481;48.764;8.936;2023-07-20T07:21:42;96950;;;20.7;51
68489;BME280;55481;48.764;8.936;2023-07-20T07:32:05;96940;;;20.9;51
68489;BME280;55481;48.764;8.936;2023-07-20T07:34:24;96940;;;20.9;51
68489;BME280;55481;48.764;8.936;2023-07-20T07:36:57;96940;;;21.1;51
68489;BME280;55481;48.764;8.936;2023-07-20T07:41:44;96930;;;22;49
68489;BME280;55481;48.764;8.936;2023-07-20T07:44:14;96930;;;21.9;49.5
68489;BME280;55481;48.764;8.936;2023-07-20T07:46:46;96930;;;21.6;50
68489;BME280;55481;48.764;8.936;2023-07-20T07:54:16;96930;;;20.8;52
68489;BME280;55481;48.764;8.936;2023-07-20T07:59:18;96930;;;21.5;50.5
68489;BME280;55481;48.764;8.936;2023-07-20T08:01:48;96920;;;22;49.5
68489;BME280;55481;48.764;8.936;2023-07-20T08:04:19;96930;;;22.1;49.5
68489;BME280;55481;48.764;8.936;2023-07-20T08:09:31;96920;;;22.3;49.5
68489;BME280;55481;48.764;8.936;2023-07-20T08:12:01;96920;;;22.4;49
68489;BME280;55481;48.764;8.936;2023-07-20T08:14:31;96920;;;21.5;51
68489;BME280;55481;48.764;8.936;2023-07-20T08:17:13;96920;;;21;52
68489;BME280;55481;48.764;8.936;2023-07-20T08:19:45;96930;;;20.9;52
68489;BME280;55481;48.764;8.936;2023-07-20T08:22:12;96930;;;21.2;51.5
68489;BME280;55481;48.764;8.936;2023-07-20T08:24:32;96920;;;21.9;50
68489;BME280;55481;48.764;8.936;2023-07-20T08:27:02;96910;;;22.9;48.5
68489;BME280;55481;48.764;8.936;2023-07-20T08:29:38;96910;;;22.8;48.5
68489;BME280;55481;48.764;8.936;2023-07-20T08:34:23;96920;;;21.4;51.5
68489;BME280;55481;48.764;8.936;2023-07-20T08:36:52;96930;;;21.2;52
68489;BME280;55481;48.764;8.936;2023-07-20T08:41:54;96920;;;22.1;50
68489;BME280;55481;48.764;8.936;2023-07-20T08:49:48;96910;;;23.5;47.5
68489;BME280;55481;48.764;8.936;2023-07-20T08:52:19;96910;;;23.7;47.5
68489;BME280;55481;48.764;8.936;2023-07-20T08:57:09;96920;;;22;51
68489;BME280;55481;48.764;8.936;2023-07-20T08:59:38;96920;;;21.4;52
68489;BME280;55481;48.764;8.936;2023-07-20T09:02:08;96920;;;21.8;51
68489;BME280;55481;48.764;8.936;2023-07-20T09:04:38;96910;;;22.8;49
68489;BME280;55481;48.764;8.936;2023-07-20T09:06:58;96910;;;22.9;49
68489;BME280;55481;48.764;8.936;2023-07-20T09:09:28;96910;;;22.8;49
68489;BME280;55481;48.764;8.936;2023-07-20T09:11:58;96910;;;23;49
68489;BME280;55481;48.764;8.936;2023-07-20T09:14:30;96900;;;22.6;49.5
68489;BME280;55481;48.764;8.936;2023-07-20T09:17:00;96910;;;22.4;50
68489;BME280;55481;48.764;8.936;2023-07-20T09:19:30;96910;;;22.1;50.5
68489;BME280;55481;48.764;8.936;2023-07-20T09:22:00;96910;;;22.2;50
68489;BME280;55481;48.764;8.936;2023-07-20T09:24:31;96910;;;22.1;50.5
68489;BME280;55481;48.764;8.936;2023-07-20T09:32:03;96910;;;23.2;48
68489;BME280;55481;48.764;8.936;2023-07-20T09:42:15;96900;;;23.5;48
68489;BME280;55481;48.764;8.936;2023-07-20T09:44:47;96910;;;23.6;48
68489;BME280;55481;48.764;8.936;2023-07-20T09:47:21;96890;;;23.8;47.5
68489;BME280;55481;48.764;8.936;2023-07-20T09:49:45;96900;;;23.8;47.5
68489;BME280;55481;48.764;8.936;2023-07-20T09:52:15;96900;;;23.4;48.5
68489;BME280;55481;48.764;8.936;2023-07-20T09:54:53;96900;;;22.9;49.5
68489;BME280;55481;48.764;8.936;2023-07-20T09:59:35;96900;;;23.1;49
68489;BME280;55481;48.764;8.936;2023-07-20T10:02:11;96900;;;23.1;49
68489;BME280;55481;48.764;8.936;2023-07-20T10:04:35;96900;;;23.7;48
68489;BME280;55481;48.764;8.936;2023-07-20T10:07:07;96900;;;24.3;47
68489;BME280;55481;48.764;8.936;2023-07-20T10:14:38;96900;;;22.7;50
68489;BME280;55481;48.764;8.936;2023-07-20T10:17:08;96890;;;23.1;49
68489;BME280;55481;48.764;8.936;2023-07-20T10:19:54;96890;;;23.8;48
68489;BME280;55481;48.764;8.936;2023-07-20T10:22:41;96890;;;24.2;47
68489;BME280;55481;48.764;8.936;2023-07-20T10:25:22;96880;;;24.1;47
68489;BME280;55481;48.764;8.936;2023-07-20T10:29:53;96880;;;24.2;47
68489;BME280;55481;48.764;8.936;2023-07-20T10:32:28;96880;;;24.4;46.5
68489;BME280;55481;48.764;8.936;2023-07-20T10:35:01;96880;;;24.3;47
68489;BME280;55481;48.764;8.936;2023-07-20T10:42:46;96870;;;23.8;48
68489;BME280;55481;48.764;8.936;2023-07-20T10:45:33;96870;;;23.7;48
68489;BME280;55481;48.764;8.936;2023-07-20T10:47:44;96870;;;24.1;47.5
68489;BME280;55481;48.764;8.936;2023-07-20T10:49:58;96860;;;24.4;46.5
68489;BME280;55481;48.764;8.936;2023-07-20T10:52:25;96860;;;24.6;46.5
68489;BME280;55481;48.764;8.936;2023-07-20T10:54:54;96860;;;24.8;46
68489;BME280;55481;48.764;8.936;2023-07-20T10:57:36;96860;;;24.5;46.5
68489;BME280;55481;48.764;8.936;2023-07-20T11:00:10;96860;;;24.6;46.5
68489;BME280;55481;48.764;8.936;2023-07-20T11:02:41;96850;;;25;46
68489;BME280;55481;48.764;8.936;2023-07-20T11:05:31;96850;;;25;46
68489;BME280;55481;48.764;8.936;2023-07-20T11:10:04;96850;;;24.4;47
68489;BME280;55481;48.764;8.936;2023-07-20T11:12:29;96850;;;24.8;46.5
68489;BME280;55481;48.764;8.936;2023-07-20T11:17:17;96870;;;24.6;46.5
68489;BME280;55481;48.764;8.936;2023-07-20T11:19:48;96860;;;24.7;46.5
68489;BME280;55481;48.764;8.936;2023-07-20T11:29:50;96840;;;25.8;44.5
68489;BME280;55481;48.764;8.936;2023-07-20T11:32:21;96840;;;25.5;45
68489;BME280;55481;48.764;8.936;2023-07-20T11:34:51;96840;;;25.6;45
68489;BME280;55481;48.764;8.936;2023-07-20T11:40:04;96840;;;25.7;45
68489;BME280;55481;48.764;8.936;2023-07-20T11:42:34;96830;;;25.6;45
68489;BME280;55481;48.764;8.936;2023-07-20T11:45:13;96840;;;25.8;45
68489;BME280;55481;48.764;8.936;2023-07-20T11:47:34;96830;;;25.6;45
68489;BME280;55481;48.764;8.936;2023-07-20T11:50:04;96830;;;25.4;45.5
68489;BME280;55481;48.764;8.936;2023-07-20T11:54:53;96830;;;25.9;44.5
68489;BME280;55481;48.764;8.936;2023-07-20T11:57:24;96820;;;25.8;44.5
68489;BME280;55481;48.764;8.936;2023-07-20T11:59:56;96820;;;26;44
68489;BME280;55481;48.764;8.936;2023-07-20T12:02:26;96820;;;25.9;44.5
68489;BME280;55481;48.764;8.936;2023-07-20T12:04:56;96810;;;26.4;43.5
68489;BME280;55481;48.764;8.936;2023-07-20T12:07:49;96810;;;27.2;42
68489;BME280;55481;48.764;8.936;2023-07-20T12:10:23;96810;;;27.6;41
68489;BME280;55481;48.764;8.936;2023-07-20T12:12:50;96800;;;27.2;42
68489;BME280;55481;48.764;8.936;2023-07-20T12:15:26;96800;;;27.1;42
68489;BME280;55481;48.764;8.936;2023-07-20T12:17:50;96810;;;28.3;40
68489;BME280;55481;48.764;8.936;2023-07-20T12:22:40;96800;;;28.6;40
68489;BME280;55481;48.764;8.936;2023-07-20T12:25:09;96800;;;27.9;41
68489;BME280;55481;48.764;8.936;2023-07-20T12:27:39;96800;;;28.1;41
68489;BME280;55481;48.764;8.936;2023-07-20T12:30:10;96790;;;28.9;39.5
68489;BME280;55481;48.764;8.936;2023-07-20T12:32:40;96790;;;28.5;40
68489;BME280;55481;48.764;8.936;2023-07-20T12:35:10;96790;;;28.1;41
68489;BME280;55481;48.764;8.936;2023-07-20T12:37:43;96800;;;26.4;43.5
68489;BME280;55481;48.764;8.936;2023-07-20T12:40:10;96800;;;25.9;44.5
68489;BME280;55481;48.764;8.936;2023-07-20T12:50:40;96770;;;29.4;38.5
68489;BME280;55481;48.764;8.936;2023-07-20T12:53:11;96770;;;29.5;38
68489;BME280;55481;48.764;8.936;2023-07-20T12:55:23;96760;;;29.5;38.5
68489;BME280;55481;48.764;8.936;2023-07-20T12:58:00;96770;;;28.2;40.5
68489;BME280;55481;48.764;8.936;2023-07-20T13:00:25;96770;;;28.1;40.5
68489;BME280;55481;48.764;8.936;2023-07-20T13:02:44;96760;;;28.9;39.5
68489;BME280;55481;48.764;8.936;2023-07-20T13:05:14;96760;;;29.1;39
68489;BME280;55481;48.764;8.936;2023-07-20T13:10:26;96750;;;29.4;38.5
68489;BME280;55481;48.764;8.936;2023-07-20T13:13:06;96740;;;29.7;38
68489;BME280;55481;48.764;8.936;2023-07-20T13:15:43;96750;;;30.3;37.5
68489;BME280;55481;48.764;8.936;2023-07-20T13:20:21;96750;;;30;38
68489;BME280;55481;48.764;8.936;2023-07-20T13:22:47;96750;;;29.3;39
68489;BME280;55481;48.764;8.936;2023-07-20T13:25:17;96750;;;29.8;38
68489;BME280;55481;48.764;8.936;2023-07-20T13:27:47;96750;;;29;39
68489;BME280;55481;48.764;8.936;2023-07-20T13:30:27;96760;;;29.1;38.5
68489;BME280;55481;48.764;8.936;2023-07-20T13:32:56;96760;;;28.5;39.5
68489;BME280;55481;48.764;8.936;2023-07-20T13:37:36;96760;;;29.5;38
68489;BME280;55481;48.764;8.936;2023-07-20T13:42:39;96750;;;29.5;37.5
68489;BME280;55481;48.764;8.936;2023-07-20T13:45:08;96760;;;27.9;40
68489;BME280;55481;48.764;8.936;2023-07-20T13:47:38;96740;;;28.7;38.5
68489;BME280;55481;48.764;8.936;2023-07-20T13:55:21;96730;;;31.4;34.5
68489;BME280;55481;48.764;8.936;2023-07-20T13:58:00;96730;;;29.3;38
68489;BME280;55481;48.764;8.936;2023-07-20T14:05:21;96730;;;31.3;35
68489;BME280;55481;48.764;8.936;2023-07-20T14:07:52;96720;;;30.2;36.5
68489;BME280;55481;48.764;8.936;2023-07-20T14:10:22;96720;;;30.6;36
68489;BME280;55481;48.764;8.936;2023-07-20T14:22:43;96720;;;29.4;37.5
68489;BME280;55481;48.764;8.936;2023-07-20T14:25:13;96720;;;30;36.5
68489;BME280;55481;48.764;8.936;2023-07-20T14:27:44;96710;;;32;33.5
68489;BME280;55481;48.764;8.936;2023-07-20T14:30:14;96710;;;31.8;34
68489;BME280;55481;48.764;8.936;2023-07-20T14:32:45;96690;;;32.8;32.5
68489;BME280;55481;48.764;8.936;2023-07-20T14:35:15;96710;;;32.1;33.5
68489;BME280;55481;48.764;8.936;2023-07-20T14:38:08;96710;;;31.9;33.5
68489;BME280;55481;48.764;8.936;2023-07-20T14:40:40;96700;;;32;33.5
68489;BME280;55481;48.764;8.936;2023-07-20T14:43:11;96700;;;32.1;33.5
68489;BME280;55481;48.764;8.936;2023-07-20T14:45:29;96700;;;32.2;33
68489;BME280;55481;48.764;8.936;2023-07-20T14:47:59;96700;;;31.6;34
68489;BME280;55481;48.764;8.936;2023-07-20T14:50:39;96690;;;32.6;32.5
68489;BME280;55481;48.764;8.936;2023-07-20T14:53:08;96700;;;30.3;35.5
68489;BME280;55481;48.764;8.936;2023-07-20T14:58:20;96700;;;29.9;36
68489;BME280;55481;48.764;8.936;2023-07-20T15:00:42;96700;;;30.5;34.5
68489;BME280;55481;48.764;8.936;2023-07-20T15:05:32;96690;;;31.4;33
68489;BME280;55481;48.764;8.936;2023-07-20T15:08:02;96690;;;32.4;32
68489;BME280;55481;48.764;8.936;2023-07-20T15:10:42;96680;;;32.5;31.5
68489;BME280;55481;48.764;8.936;2023-07-20T15:13:02;96690;;;30.8;34
68489;BME280;55481;48.764;8.936;2023-07-20T15:17:52;96700;;;29.3;35.5
68489;BME280;55481;48.764;8.936;2023-07-20T15:20:27;96700;;;27.8;37.5
68489;BME280;55481;48.764;8.936;2023-07-20T15:22:52;96700;;;26.8;39
68489;BME280;55481;48.764;8.936;2023-07-20T15:25:40;96700;;;26.2;39.5
68489;BME280;55481;48.764;8.936;2023-07-20T15:28:05;96690;;;26.3;39
68489;BME280;55481;48.764;8.936;2023-07-20T15:30:34;96700;;;26.4;38.5
68489;BME280;55481;48.764;8.936;2023-07-20T15:33:05;96690;;;26.7;38
68489;BME280;55481;48.764;8.936;2023-07-20T15:40:25;96680;;;26.4;37.5
68489;BME280;55481;48.764;8.936;2023-07-20T15:42:56;96680;;;26.5;37.5
68489;BME280;55481;48.764;8.936;2023-07-20T15:45:27;96670;;;26.4;37.5
68489;BME280;55481;48.764;8.936;2023-07-20T15:53:08;96660;;;25.9;38
68489;BME280;55481;48.764;8.936;2023-07-20T15:55:38;96660;;;25.7;38
68489;BME280;55481;48.764;8.936;2023-07-20T15:58:08;96660;;;25.8;38
68489;BME280;55481;48.764;8.936;2023-07-20T16:02:57;96660;;;25.6;38
68489;BME280;55481;48.764;8.936;2023-07-20T16:05:28;96660;;;25.7;38
68489;BME280;55481;48.764;8.936;2023-07-20T16:07:59;96660;;;25.5;38
68489;BME280;55481;48.764;8.936;2023-07-20T16:10:28;96660;;;25.5;38
68489;BME280;55481;48.764;8.936;2023-07-20T16:12:59;96660;;;25.4;38
68489;BME280;55481;48.764;8.936;2023-07-20T16:15:29;96660;;;25.8;37.5
68489;BME280;55481;48.764;8.936;2023-07-20T16:20:31;96650;;;25.4;38
68489;BME280;55481;48.764;8.936;2023-07-20T16:28:03;96650;;;25.3;38
68489;BME280;55481;48.764;8.936;2023-07-20T16:30:33;96650;;;25.1;38.5
68489;BME280;55481;48.764;8.936;2023-07-20T16:33:03;96650;;;25;38.5
68489;BME280;55481;48.764;8.936;2023-07-20T16:35:36;96650;;;25;38.5
68489;BME280;55481;48.764;8.936;2023-07-20T16:38:04;96650;;;24.8;38.5
68489;BME280;55481;48.764;8.936;2023-07-20T16:45:35;96640;;;24.7;39
68489;BME280;55481;48.764;8.936;2023-07-20T16:48:09;96640;;;24.8;38.5
68489;BME280;55481;48.764;8.936;2023-07-20T16:50:48;96640;;;24.6;38.5
68489;BME280;55481;48.764;8.936;2023-07-20T16:55:49;96640;;;24.6;38.5
68489;BME280;55481;48.764;8.936;2023-07-20T16:58:19;96640;;;24.6;38.5
68489;BME280;55481;48.764;8.936;2023-07-20T17:03:14;96640;;;24.5;38.5
68489;BME280;55481;48.764;8.936;2023-07-20T17:13:10;96650;;;24.4;38.5
68489;BME280;55481;48.764;8.936;2023-07-20T17:15:45;96650;;;24.3;39
68489;BME280;55481;48.764;8.936;2023-07-20T17:18:13;96650;;;24.3;39
68489;BME280;55481;48.764;8.936;2023-07-20T17:20:41;96640;;;24.1;39
68489;BME280;55481;48.764;8.936;2023-07-20T17:23:13;96640;;;24;39.5
68489;BME280;55481;48.764;8.936;2023-07-20T17:26:06;96640;;;23.9;39.5
68489;BME280;55481;48.764;8.936;2023-07-20T17:28:36;96640;;;23.8;39.5
68489;BME280;55481;48.764;8.936;2023-07-20T17:33:27;96650;;;23.9;39
68489;BME280;55481;48.764;8.936;2023-07-20T17:35:56;96650;;;23.6;39.5
68489;BME280;55481;48.764;8.936;2023-07-20T17:38:30;96650;;;23.5;39.5
68489;BME280;55481;48.764;8.936;2023-07-20T17:41:08;96650;;;23.5;39.5
68489;BME280;55481;48.764;8.936;2023-07-20T17:43:41;96640;;;23.6;39.5
68489;BME280;55481;48.764;8.936;2023-07-20T17:46:18;96650;;;23.6;39.5
68489;BME280;55481;48.764;8.936;2023-07-20T17:48:29;96650;;;23.5;39.5
68489;BME280;55481;48.764;8.936;2023-07-20T17:50:58;96660;;;23.4;39.5
68489;BME280;55481;48.764;8.936;2023-07-20T17:53:29;96650;;;23.4;39.5
68489;BME280;55481;48.764;8.936;2023-07-20T17:55:58;96650;;;23.3;39.5
68489;BME280;55481;48.764;8.936;2023-07-20T17:58:29;96660;;;23.1;40
68489;BME280;55481;48.764;8.936;2023-07-20T18:05:50;96650;;;23.1;40
68489;BME280;55481;48.764;8.936;2023-07-20T18:13:46;96650;;;22.9;40
68489;BME280;55481;48.764;8.936;2023-07-20T18:16:22;96650;;;22.9;40
68489;BME280;55481;48.764;8.936;2023-07-20T18:18:32;96650;;;22.9;40
68489;BME280;55481;48.764;8.936;2023-07-20T18:21:02;96650;;;22.9;40
68489;BME280;55481;48.764;8.936;2023-07-20T18:23:32;96650;;;22.8;40
68489;BME280;55481;48.764;8.936;2023-07-20T18:26:03;96650;;;22.8;40
68489;BME280;55481;48.764;8.936;2023-07-20T18:28:22;96650;;;22.8;40
68489;BME280;55481;48.764;8.936;2023-07-20T18:35:54;96650;;;22.6;40
68489;BME280;55481;48.764;8.936;2023-07-20T18:38:26;96650;;;22.6;40
68489;BME280;55481;48.764;8.936;2023-07-20T18:40:54;96650;;;22.5;40
68489;BME280;55481;48.764;8.936;2023-07-20T18:43:25;96650;;;22.4;40.5
68489;BME280;55481;48.764;8.936;2023-07-20T18:45:55;96650;;;22.3;40.5
68489;BME280;55481;48.764;8.936;2023-07-20T18:48:26;96640;;;22.2;40.5
68489;BME280;55481;48.764;8.936;2023-07-20T18:50:56;96640;;;22.2;40.5
68489;BME280;55481;48.764;8.936;2023-07-20T18:53:40;96640;;;22.1;40.5
68489;BME280;55481;48.764;8.936;2023-07-20T18:56:08;96640;;;22;40.5
68489;BME280;55481;48.764;8.936;2023-07-20T18:58:38;96640;;;22.1;40.5
68489;BME280;55481;48.764;8.936;2023-07-20T19:01:18;96640;;;22.1;40.5
68489;BME280;55481;48.764;8.936;2023-07-20T19:05:58;96650;;;21.6;41
68489;BME280;55481;48.764;8.936;2023-07-20T19:08:32;96650;;;21.6;41
68489;BME280;55481;48.764;8.936;2023-07-20T19:10:59;96650;;;21.6;41
68489;BME280;55481;48.764;8.936;2023-07-20T19:13:30;96650;;;21.5;41
68489;BME280;55481;48.764;8.936;2023-07-20T19:15:59;96660;;;21.4;41.5
68489;BME280;55481;48.764;8.936;2023-07-20T19:18:30;96660;;;21.4;41.5
68489;BME280;55481;48.764;8.936;2023-07-20T19:21:01;96650;;;21.4;41
68489;BME280;55481;48.764;8.936;2023-07-20T19:23:31;96650;;;21.4;41
68489;BME280;55481;48.764;8.936;2023-07-20T19:28:53;96660;;;21.3;41